createdAt,value
2018-06-13T00:00:03.494Z,15.07
2018-06-13T00:02:32.920Z,15.07
2018-06-13T00:05:02.734Z,15.11
2018-06-13T00:07:32.485Z,15.15
2018-06-13T00:10:01.943Z,15.15
2018-06-13T00:12:31.482Z,15.20
2018-06-13T00:15:01.288Z,15.24
2018-06-13T00:17:31.056Z,15.26
2018-06-13T00:20:00.764Z,15.34
2018-06-13T00:22:30.268Z,15.37
2018-06-13T00:25:00.206Z,15.42
2018-06-13T00:27:30.009Z,15.39
2018-06-13T00:29:59.910Z,15.39
2018-06-13T00:32:29.618Z,15.39
2018-06-13T00:34:59.413Z,15.35
2018-06-13T00:37:29.369Z,15.40
2018-06-13T00:39:59.228Z,15.42
2018-06-13T00:42:29.012Z,15.44
2018-06-13T00:44:59.546Z,15.41
2018-06-13T00:47:29.252Z,15.49
2018-06-13T00:49:59.036Z,15.55
2018-06-13T00:52:28.783Z,15.62
2018-06-13T00:54:58.500Z,15.67
2018-06-13T00:57:28.397Z,15.67
2018-06-13T00:59:58.124Z,15.74
2018-06-13T01:02:27.870Z,15.76
2018-06-13T01:04:57.686Z,15.76
2018-06-13T01:07:27.154Z,15.79
2018-06-13T01:09:56.574Z,15.77
2018-06-13T01:12:26.401Z,15.73
2018-06-13T01:14:56.282Z,15.71
2018-06-13T01:17:25.720Z,15.76
2018-06-13T01:19:55.579Z,15.75
2018-06-13T01:22:25.263Z,15.74
2018-06-13T01:24:54.958Z,15.75
2018-06-13T01:27:24.432Z,15.77
2018-06-13T01:29:54.190Z,15.79
2018-06-13T01:32:24.126Z,15.83
2018-06-13T01:34:53.942Z,15.78
2018-06-13T01:37:23.731Z,15.81
2018-06-13T01:39:53.184Z,15.84
2018-06-13T01:42:22.598Z,15.83
2018-06-13T01:44:52.484Z,15.82
2018-06-13T01:47:22.462Z,15.79
2018-06-13T01:49:52.202Z,15.81
2018-06-13T01:52:21.653Z,15.83
2018-06-13T01:54:51.453Z,15.81
2018-06-13T01:57:21.343Z,15.82
2018-06-13T01:59:51.031Z,15.82
2018-06-13T02:02:20.737Z,15.82
2018-06-13T02:04:50.657Z,15.80
2018-06-13T02:07:20.408Z,15.78
2018-06-13T02:09:50.194Z,15.79
2018-06-13T02:12:19.907Z,15.78
2018-06-13T02:14:49.662Z,15.73
2018-06-13T02:17:19.231Z,15.76
2018-06-13T02:19:48.982Z,15.73
2018-06-13T02:22:18.936Z,15.73
2018-06-13T02:24:48.623Z,15.76
2018-06-13T02:27:18.160Z,15.77
2018-06-13T02:29:47.961Z,15.77
2018-06-13T02:32:17.454Z,15.78
2018-06-13T02:34:47.190Z,15.75
2018-06-13T02:37:16.988Z,15.82
2018-06-13T02:39:46.811Z,15.86
2018-06-13T02:42:16.592Z,15.83
2018-06-13T02:44:46.295Z,15.81
2018-06-13T02:47:16.034Z,15.81
2018-06-13T02:49:45.865Z,15.78
2018-06-13T02:52:15.643Z,15.77
2018-06-13T02:54:45.394Z,15.79
2018-06-13T02:57:15.215Z,15.77
2018-06-13T02:59:44.972Z,15.80
2018-06-13T03:02:14.664Z,15.79
2018-06-13T03:04:44.446Z,15.79
2018-06-13T03:07:14.458Z,15.79
2018-06-13T03:09:44.184Z,15.84
2018-06-13T03:12:14.007Z,15.87
2018-06-13T03:14:43.703Z,15.87
2018-06-13T03:17:13.482Z,15.87
2018-06-13T03:19:43.283Z,15.83
2018-06-13T03:22:12.695Z,15.85
2018-06-13T03:24:42.560Z,15.94
2018-06-13T03:27:12.308Z,16.04
2018-06-13T03:29:42.035Z,16.06
2018-06-13T03:32:11.836Z,16.17
2018-06-13T03:34:41.670Z,16.19
2018-06-13T03:37:11.527Z,16.20
2018-06-13T03:39:41.243Z,16.23
2018-06-13T03:42:10.983Z,16.26
2018-06-13T03:44:40.715Z,16.29
2018-06-13T03:47:10.558Z,16.33
2018-06-13T03:49:40.382Z,16.33
2018-06-13T03:52:10.286Z,16.35
2018-06-13T03:54:40.078Z,16.38
2018-06-13T03:57:09.769Z,16.43
2018-06-13T03:59:39.401Z,16.52
2018-06-13T04:02:09.130Z,16.53
2018-06-13T04:04:39.034Z,16.59
2018-06-13T04:07:09.239Z,16.66
2018-06-13T04:09:38.981Z,16.83
2018-06-13T04:12:08.836Z,16.88
2018-06-13T04:14:38.535Z,16.90
2018-06-13T04:17:08.388Z,17.03
2018-06-13T04:19:38.157Z,17.15
2018-06-13T04:22:07.965Z,17.29
2018-06-13T04:24:37.713Z,17.41
2018-06-13T04:27:07.438Z,17.50
2018-06-13T04:29:37.455Z,17.59
2018-06-13T04:32:07.338Z,17.75
2018-06-13T04:34:37.278Z,17.90
2018-06-13T04:37:07.067Z,18.14
2018-06-13T04:39:36.849Z,18.32
2018-06-13T04:42:06.640Z,18.51
2018-06-13T04:44:36.411Z,18.61
2018-06-13T04:47:06.270Z,18.72
2018-06-13T04:49:36.035Z,18.88
2018-06-13T04:52:06.309Z,19.02
2018-06-13T04:54:36.079Z,19.12
2018-06-13T04:57:05.907Z,19.31
2018-06-13T04:59:35.661Z,19.50
2018-06-13T05:02:05.530Z,19.69
2018-06-13T05:04:35.295Z,19.91
2018-06-13T05:07:05.386Z,19.98
2018-06-13T05:09:35.390Z,19.85
2018-06-13T05:12:05.260Z,19.73
2018-06-13T05:14:35.044Z,19.63
2018-06-13T05:17:04.852Z,19.37
2018-06-13T05:19:35.187Z,19.28
2018-06-13T05:22:05.011Z,19.25
2018-06-13T05:24:34.758Z,19.19
2018-06-13T05:27:04.533Z,19.29
2018-06-13T05:29:34.763Z,19.42
2018-06-13T05:32:04.486Z,19.46
2018-06-13T05:34:34.278Z,19.60
2018-06-13T05:37:04.118Z,19.83
2018-06-13T05:39:33.978Z,19.95
2018-06-13T05:42:03.725Z,19.96
2018-06-13T05:44:33.159Z,19.95
2018-06-13T05:47:02.880Z,19.96
2018-06-13T05:49:32.408Z,20.12
2018-06-13T05:52:02.107Z,20.30
2018-06-13T05:54:31.914Z,20.38
2018-06-13T05:57:01.706Z,20.49
2018-06-13T05:59:31.639Z,20.62
2018-06-13T06:02:01.583Z,20.70
2018-06-13T06:04:31.370Z,20.76
2018-06-13T06:07:01.245Z,20.84
2018-06-13T06:09:31.081Z,20.92
2018-06-13T06:12:00.918Z,20.91
2018-06-13T06:14:30.679Z,20.96
2018-06-13T06:17:00.685Z,20.82
2018-06-13T06:19:30.485Z,20.67
2018-06-13T06:22:00.356Z,20.59
2018-06-13T06:24:30.227Z,20.61
2018-06-13T06:27:00.183Z,20.70
2018-06-13T06:29:29.938Z,20.76
2018-06-13T06:31:59.991Z,20.73
2018-06-13T06:34:29.918Z,20.77
2018-06-13T06:36:59.740Z,20.77
2018-06-13T06:39:30.097Z,20.72
2018-06-13T06:41:59.952Z,20.78
2018-06-13T06:44:30.084Z,20.88
2018-06-13T06:46:59.916Z,20.83
2018-06-13T06:49:29.678Z,20.92
2018-06-13T06:51:59.686Z,20.99
2018-06-13T06:54:29.449Z,21.15
2018-06-13T06:56:59.390Z,21.36
2018-06-13T06:59:29.270Z,21.59
2018-06-13T07:01:59.019Z,21.79
2018-06-13T07:04:28.867Z,21.90
2018-06-13T07:06:59.416Z,22.13
2018-06-13T07:09:29.757Z,22.42
2018-06-13T07:11:59.798Z,22.49
2018-06-13T07:14:29.644Z,22.51
2018-06-13T07:16:59.567Z,22.56
2018-06-13T07:19:29.603Z,22.67
2018-06-13T07:21:59.499Z,22.83
2018-06-13T07:24:29.387Z,23.00
2018-06-13T07:26:59.751Z,22.98
2018-06-13T07:29:29.525Z,23.02
2018-06-13T07:31:59.459Z,23.04
2018-06-13T07:34:29.284Z,22.99
2018-06-13T07:36:59.189Z,22.97
2018-06-13T07:39:29.352Z,22.97
2018-06-13T07:41:59.160Z,22.87
2018-06-13T07:44:29.251Z,23.01
2018-06-13T07:46:59.164Z,23.21
2018-06-13T07:49:28.922Z,23.43
2018-06-13T07:51:58.690Z,23.54
2018-06-13T07:54:30.655Z,23.69
2018-06-13T07:57:01.924Z,23.68
2018-06-13T07:59:33.140Z,23.62
2018-06-13T08:02:03.466Z,23.66
2018-06-13T08:04:33.590Z,23.66
2018-06-13T08:07:04.020Z,23.70
2018-06-13T08:09:33.693Z,23.71
2018-06-13T08:12:03.674Z,23.72
2018-06-13T08:14:33.505Z,23.86
2018-06-13T08:17:03.405Z,23.88
2018-06-13T08:19:33.113Z,24.00
2018-06-13T08:22:02.811Z,24.04
2018-06-13T08:25:04.683Z,24.11
2018-06-13T08:27:34.940Z,24.16
2018-06-13T08:30:05.013Z,24.33
2018-06-13T08:32:35.071Z,24.45
2018-06-13T08:35:04.761Z,24.55
2018-06-13T08:37:35.986Z,24.58
2018-06-13T08:40:05.735Z,24.61
2018-06-13T08:42:35.368Z,24.52
2018-06-13T08:45:05.173Z,24.42
2018-06-13T08:47:34.872Z,24.42
2018-06-13T08:50:04.894Z,24.44
2018-06-13T08:52:34.586Z,24.45
2018-06-13T08:55:04.348Z,24.44
2018-06-13T08:57:34.143Z,24.46
2018-06-13T09:00:04.887Z,24.49
2018-06-13T09:02:34.427Z,24.55
2018-06-13T09:05:04.175Z,24.58
2018-06-13T09:07:33.860Z,24.59
2018-06-13T09:10:03.626Z,24.71
2018-06-13T09:12:33.576Z,24.70
2018-06-13T09:15:03.372Z,24.72
2018-06-13T09:17:33.285Z,24.84
2018-06-13T09:20:03.006Z,24.91
2018-06-13T09:22:33.123Z,24.86
2018-06-13T09:25:03.019Z,24.83
2018-06-13T09:27:32.823Z,24.93
2018-06-13T09:30:02.526Z,24.86
2018-06-13T09:32:32.974Z,24.83
2018-06-13T09:35:02.868Z,24.83
2018-06-13T09:37:32.640Z,24.84
2018-06-13T09:40:03.181Z,24.92
2018-06-13T09:42:32.898Z,24.76
2018-06-13T09:45:02.610Z,24.57
2018-06-13T09:47:32.325Z,24.46
2018-06-13T09:50:02.036Z,24.44
2018-06-13T09:52:32.117Z,24.44
2018-06-13T09:55:01.802Z,24.21
2018-06-13T09:57:31.679Z,24.07
2018-06-13T10:00:06.590Z,23.94
2018-06-13T10:02:36.712Z,23.84
2018-06-13T10:05:07.016Z,23.66
2018-06-13T10:07:36.903Z,23.57
2018-06-13T10:10:07.106Z,23.49
2018-06-13T10:12:36.810Z,23.42
2018-06-13T10:15:06.266Z,23.35
2018-06-13T10:17:36.425Z,23.33
2018-06-13T10:20:06.517Z,23.20
2018-06-13T10:22:36.344Z,23.15
2018-06-13T10:25:06.216Z,23.09
2018-06-13T10:27:40.586Z,22.99
2018-06-13T10:30:10.290Z,22.87
2018-06-13T10:32:40.094Z,22.78
2018-06-13T10:35:12.319Z,22.65
2018-06-13T10:37:43.761Z,22.55
2018-06-13T10:40:13.529Z,22.38
2018-06-13T10:42:43.125Z,22.18
2018-06-13T10:45:12.854Z,22.14
2018-06-13T10:47:42.663Z,22.15
2018-06-13T10:50:12.366Z,22.19
2018-06-13T10:52:42.316Z,22.20
2018-06-13T10:55:12.031Z,22.23
2018-06-13T10:57:42.689Z,22.32
2018-06-13T11:00:12.511Z,22.49
2018-06-13T11:02:43.409Z,22.63
2018-06-13T11:05:13.317Z,22.66
2018-06-13T11:07:43.030Z,22.55
2018-06-13T11:10:12.814Z,22.46
2018-06-13T11:12:42.588Z,22.48
2018-06-13T11:15:12.282Z,22.54
2018-06-13T11:17:42.094Z,22.63
2018-06-13T11:20:11.783Z,22.56
2018-06-13T11:22:41.592Z,22.50
2018-06-13T11:25:11.312Z,22.37
2018-06-13T11:27:41.136Z,22.18
2018-06-13T11:30:10.884Z,21.99
2018-06-13T11:32:40.787Z,21.95
2018-06-13T11:35:10.650Z,22.02
2018-06-13T11:37:40.422Z,22.02
2018-06-13T11:40:10.274Z,22.10
2018-06-13T11:42:40.227Z,22.36
2018-06-13T11:45:09.977Z,22.60
2018-06-13T11:47:39.976Z,22.87
2018-06-13T11:50:09.704Z,23.05
2018-06-13T11:52:39.563Z,23.06
2018-06-13T11:55:09.960Z,23.02
2018-06-13T11:57:39.683Z,22.99
2018-06-13T12:00:10.012Z,22.93
2018-06-13T12:02:46.518Z,22.85
2018-06-13T12:05:16.353Z,22.77
2018-06-13T12:07:46.139Z,22.72
2018-06-13T12:10:15.955Z,22.76
2018-06-13T12:12:45.746Z,22.93
2018-06-13T12:15:15.555Z,23.09
2018-06-13T12:17:45.330Z,23.22
2018-06-13T12:20:15.027Z,23.26
2018-06-13T12:22:45.027Z,23.13
2018-06-13T12:25:14.731Z,22.99
2018-06-13T12:27:44.764Z,22.75
2018-06-13T12:30:14.603Z,22.82
2018-06-13T12:32:44.486Z,23.07
2018-06-13T12:35:14.292Z,23.35
2018-06-13T12:37:44.194Z,23.57
2018-06-13T12:40:14.638Z,23.79
2018-06-13T12:42:44.439Z,23.85
2018-06-13T12:45:14.123Z,23.90
2018-06-13T12:47:43.902Z,24.01
2018-06-13T12:50:13.599Z,24.31
2018-06-13T12:52:43.326Z,24.47
2018-06-13T12:55:13.296Z,24.62
2018-06-13T12:57:43.015Z,24.63
2018-06-13T13:00:12.810Z,24.70
2018-06-13T13:02:42.680Z,24.81
2018-06-13T13:05:12.430Z,24.96
2018-06-13T13:07:42.286Z,25.02
2018-06-13T13:10:12.029Z,25.08
2018-06-13T13:12:42.489Z,25.09
2018-06-13T13:15:12.383Z,25.12
2018-06-13T13:17:42.342Z,25.18
2018-06-13T13:20:12.054Z,25.31
2018-06-13T13:22:42.068Z,25.34
2018-06-13T13:25:12.470Z,25.17
2018-06-13T13:27:42.221Z,25.08
2018-06-13T13:30:12.000Z,25.03
2018-06-13T13:32:41.935Z,25.04
2018-06-13T13:35:11.752Z,25.09
2018-06-13T13:37:41.518Z,25.09
2018-06-13T13:40:11.182Z,25.04
2018-06-13T13:42:41.494Z,25.00
2018-06-13T13:45:11.211Z,24.97
2018-06-13T13:47:40.995Z,24.93
2018-06-13T13:50:11.321Z,24.92
2018-06-13T13:52:41.133Z,24.77
2018-06-13T13:55:11.038Z,24.65
2018-06-13T13:57:40.791Z,24.66
2018-06-13T14:00:10.532Z,24.66
2018-06-13T14:02:40.651Z,24.58
2018-06-13T14:05:10.398Z,24.51
2018-06-13T14:07:40.138Z,24.37
2018-06-13T14:10:09.835Z,24.29
2018-06-13T14:12:39.608Z,23.99
2018-06-13T14:15:09.311Z,23.83
2018-06-13T14:17:39.035Z,23.64
2018-06-13T14:20:09.023Z,23.46
2018-06-13T14:22:38.628Z,23.30
2018-06-13T14:25:08.600Z,23.20
2018-06-13T14:27:38.495Z,23.22
2018-06-13T14:30:08.226Z,23.23
2018-06-13T14:32:38.154Z,23.16
2018-06-13T14:35:08.059Z,23.11
2018-06-13T14:37:37.776Z,23.08
2018-06-13T14:40:08.357Z,23.01
2018-06-13T14:42:38.058Z,23.00
2018-06-13T14:45:08.011Z,22.99
2018-06-13T14:47:37.920Z,23.01
2018-06-13T14:50:07.694Z,23.00
2018-06-13T14:52:37.481Z,22.91
2018-06-13T14:55:07.598Z,22.69
2018-06-13T14:57:37.298Z,22.59
2018-06-13T15:00:07.061Z,22.45
2018-06-13T15:02:37.353Z,22.36
2018-06-13T15:05:07.492Z,22.25
2018-06-13T15:07:37.254Z,22.21
2018-06-13T15:10:07.039Z,22.26
2018-06-13T15:12:36.498Z,22.32
2018-06-13T15:15:06.546Z,22.37
2018-06-13T15:17:36.249Z,22.43
2018-06-13T15:20:06.404Z,22.56
2018-06-13T15:22:36.325Z,22.67
2018-06-13T15:25:06.334Z,22.67
2018-06-13T15:27:35.783Z,22.55
2018-06-13T15:30:05.826Z,22.37
2018-06-13T15:32:35.851Z,22.23
2018-06-13T15:35:05.559Z,22.14
2018-06-13T15:37:35.296Z,22.02
2018-06-13T15:40:05.268Z,22.01
2018-06-13T15:42:34.962Z,21.93
2018-06-13T15:45:05.445Z,22.01
2018-06-13T15:47:35.209Z,22.05
2018-06-13T15:50:05.380Z,22.10
2018-06-13T15:52:35.258Z,22.16
2018-06-13T15:55:05.563Z,22.21
2018-06-13T15:57:35.436Z,22.33
2018-06-13T16:00:06.033Z,22.43
2018-06-13T16:02:37.054Z,22.58
2018-06-13T16:05:07.084Z,22.69
2018-06-13T16:07:36.876Z,22.61
2018-06-13T16:10:06.848Z,22.54
2018-06-13T16:12:37.329Z,22.39
2018-06-13T16:15:07.060Z,22.33
2018-06-13T16:17:36.847Z,22.37
2018-06-13T16:20:06.899Z,22.26
2018-06-13T16:22:36.607Z,22.16
2018-06-13T16:25:06.814Z,22.13
2018-06-13T16:27:36.735Z,22.17
2018-06-13T16:30:06.718Z,22.15
2018-06-13T16:32:36.245Z,22.17
2018-06-13T16:35:06.034Z,22.21
2018-06-13T16:37:35.751Z,22.17
2018-06-13T16:40:05.627Z,22.06
2018-06-13T16:42:35.093Z,21.96
2018-06-13T16:45:05.245Z,21.96
2018-06-13T16:47:35.016Z,21.88
2018-06-13T16:50:14.627Z,21.67
2018-06-13T16:53:00.027Z,21.48
2018-06-13T16:55:29.557Z,21.33
2018-06-13T16:57:59.709Z,21.29
2018-06-13T17:00:30.336Z,21.15
2018-06-13T17:03:00.099Z,21.01
2018-06-13T17:05:29.862Z,20.98
2018-06-13T17:07:59.587Z,20.93
2018-06-13T17:10:29.061Z,20.92
2018-06-13T17:12:58.985Z,20.90
2018-06-13T17:15:28.839Z,20.95
2018-06-13T17:17:58.783Z,21.01
2018-06-13T17:20:28.536Z,20.89
2018-06-13T17:22:58.255Z,20.87
2018-06-13T17:25:28.926Z,20.81
2018-06-13T17:27:58.747Z,20.80
2018-06-13T17:30:28.519Z,20.74
2018-06-13T17:32:58.265Z,20.69
2018-06-13T17:35:28.126Z,20.70
2018-06-13T17:37:58.082Z,20.74
2018-06-13T17:40:27.870Z,20.76
2018-06-13T17:42:58.023Z,20.85
2018-06-13T17:45:28.196Z,20.86
2018-06-13T17:47:57.966Z,20.87
2018-06-13T17:50:27.790Z,20.85
2018-06-13T17:52:57.589Z,20.82
2018-06-13T17:55:27.370Z,20.71
2018-06-13T17:57:57.118Z,20.59
2018-06-13T18:00:26.930Z,20.34
2018-06-13T18:02:56.836Z,20.18
2018-06-13T18:05:26.618Z,20.06
2018-06-13T18:07:56.618Z,20.03
2018-06-13T18:10:26.374Z,19.99
2018-06-13T18:12:56.211Z,19.82
2018-06-13T18:15:26.061Z,19.73
2018-06-13T18:17:55.910Z,19.65
2018-06-13T18:20:25.791Z,19.56
2018-06-13T18:22:55.524Z,19.53
2018-06-13T18:25:25.707Z,19.52
2018-06-13T18:27:55.991Z,19.46
2018-06-13T18:30:26.183Z,19.40
2018-06-13T18:32:55.987Z,19.34
2018-06-13T18:35:25.810Z,19.25
2018-06-13T18:37:55.877Z,19.15
2018-06-13T18:40:25.773Z,19.09
2018-06-13T18:42:55.594Z,19.02
2018-06-13T18:45:26.206Z,19.09
2018-06-13T18:47:56.016Z,19.02
2018-06-13T18:50:25.746Z,19.04
2018-06-13T18:52:55.496Z,19.01
2018-06-13T18:55:25.337Z,19.06
2018-06-13T18:57:55.127Z,19.07
2018-06-13T19:00:25.553Z,19.02
2018-06-13T19:02:55.286Z,18.90
2018-06-13T19:05:25.050Z,18.89
2018-06-13T19:07:54.754Z,18.86
2018-06-13T19:10:24.500Z,18.82
2018-06-13T19:12:54.215Z,18.85
2018-06-13T19:15:23.926Z,18.80
2018-06-13T19:17:53.687Z,18.74
2018-06-13T19:20:23.746Z,18.68
2018-06-13T19:22:53.479Z,18.63
2018-06-13T19:25:23.190Z,18.63
2018-06-13T19:27:53.007Z,18.51
2018-06-13T19:30:25.139Z,18.50
2018-06-13T19:32:55.045Z,18.52
2018-06-13T19:35:24.803Z,18.47
2018-06-13T19:37:54.511Z,18.44
2018-06-13T19:40:24.274Z,18.50
2018-06-13T19:42:54.107Z,18.46
2018-06-13T19:45:23.940Z,18.46
2018-06-13T19:48:59.221Z,18.38
2018-06-13T19:51:29.040Z,18.26
2018-06-13T19:54:04.196Z,18.25
2018-06-13T19:56:34.386Z,18.18
2018-06-13T19:59:04.149Z,18.13
2018-06-13T20:01:33.893Z,18.05
2018-06-13T20:04:09.012Z,18.02
2018-06-13T20:06:40.298Z,18.05
2018-06-13T20:09:11.774Z,18.03
2018-06-13T20:11:42.324Z,18.00
2018-06-13T20:14:17.289Z,18.01
2018-06-13T20:16:53.322Z,17.95
2018-06-13T20:19:28.499Z,17.92
2018-06-13T20:21:59.371Z,17.94
2018-06-13T20:24:29.090Z,17.90
2018-06-13T20:27:04.302Z,17.85
2018-06-13T20:29:39.361Z,17.88
2018-06-13T20:32:09.115Z,17.88
2018-06-13T20:34:39.003Z,17.85
2018-06-13T20:37:08.815Z,17.77
2018-06-13T20:39:39.418Z,17.68
2018-06-13T20:42:09.365Z,17.63
2018-06-13T20:44:39.129Z,17.61
2018-06-13T20:47:08.876Z,17.69
2018-06-13T20:49:38.580Z,17.73
2018-06-13T20:52:08.329Z,17.67
2018-06-13T20:54:38.742Z,17.62
2018-06-13T20:57:08.524Z,17.52
2018-06-13T20:59:38.308Z,17.50
2018-06-13T21:02:08.123Z,17.49
2018-06-13T21:04:37.843Z,17.48
2018-06-13T21:07:07.671Z,17.55
2018-06-13T21:09:37.423Z,17.56
2018-06-13T21:12:07.727Z,17.62
2018-06-13T21:14:37.469Z,17.62
2018-06-13T21:17:07.206Z,17.56
2018-06-13T21:19:37.035Z,17.48
2018-06-13T21:22:07.078Z,17.42
2018-06-13T21:24:36.880Z,17.34
2018-06-13T21:27:06.703Z,17.24
2018-06-13T21:29:36.411Z,17.35
2018-06-13T21:32:06.330Z,17.44
2018-06-13T21:34:36.701Z,17.48
2018-06-13T21:37:06.468Z,17.42
2018-06-13T21:39:36.409Z,17.41
2018-06-13T21:42:06.625Z,17.49
2018-06-13T21:44:36.418Z,17.50
2018-06-13T21:47:06.162Z,17.53
2018-06-13T21:49:35.968Z,17.47
2018-06-13T21:52:05.732Z,17.38
2018-06-13T21:54:35.487Z,17.24
2018-06-13T21:57:05.230Z,17.25
2018-06-13T21:59:34.988Z,17.15
2018-06-13T22:02:04.810Z,17.08
2018-06-13T22:04:34.562Z,17.08
2018-06-13T22:07:04.364Z,17.11
2018-06-13T22:09:34.101Z,17.10
2018-06-13T22:12:03.980Z,17.02
2018-06-13T22:14:33.662Z,17.11
2018-06-13T22:17:03.124Z,17.07
2018-06-13T22:19:32.830Z,17.06
2018-06-13T22:22:02.675Z,17.08
2018-06-13T22:24:32.604Z,17.08
2018-06-13T22:27:02.318Z,17.04
2018-06-13T22:29:32.287Z,17.03
2018-06-13T22:32:02.031Z,16.95
2018-06-13T22:34:31.743Z,16.82
2018-06-13T22:37:01.518Z,16.77
2018-06-13T22:39:31.321Z,16.68
2018-06-13T22:42:01.304Z,16.74
2018-06-13T22:44:31.119Z,16.70
2018-06-13T22:47:00.846Z,16.62
2018-06-13T22:49:30.506Z,16.73
2018-06-13T22:52:00.670Z,16.60
2018-06-13T22:54:30.627Z,16.70
2018-06-13T22:57:00.787Z,16.69
2018-06-13T22:59:30.637Z,16.65
2018-06-13T23:02:00.511Z,16.66
2018-06-13T23:04:30.288Z,16.68
2018-06-13T23:07:01.466Z,16.72
2018-06-13T23:09:30.915Z,16.66
2018-06-13T23:12:00.739Z,16.65
2018-06-13T23:14:30.616Z,16.61
2018-06-13T23:17:00.325Z,16.66
2018-06-13T23:19:30.108Z,16.64
2018-06-13T23:21:59.922Z,16.63
2018-06-13T23:24:29.778Z,16.67
2018-06-13T23:26:59.595Z,16.69
2018-06-13T23:29:29.967Z,16.62
2018-06-13T23:31:59.739Z,16.57
2018-06-13T23:34:29.513Z,16.59
2018-06-13T23:36:59.372Z,16.58
2018-06-13T23:39:29.342Z,16.58
2018-06-13T23:41:59.147Z,16.60
2018-06-13T23:44:28.868Z,16.62
2018-06-13T23:46:58.687Z,16.53
2018-06-13T23:49:28.457Z,16.45
2018-06-13T23:51:58.256Z,16.43
2018-06-13T23:54:28.012Z,16.42
2018-06-13T23:56:57.782Z,16.38
2018-06-13T23:59:27.646Z,16.35
